Archival Weather

John F Kennedy Intl

New York, New York (KJFK)

Report from: Thursday, September 21, 2023 2:51 PM EDT
Current time: Saturday, July 13, 2024 9:33 PM EDT

Current weather – Weather history – Daily summaries
Weather forecast

Temperature22.8°C (73.0°F)
Dew point10.6°C (51.1°F)
Winds 9 kts (4.6 m/s, 10.4 mph) North (360°)
Visibility10 mi. (16.1 km)
Clouds Few clouds 5,000 ft. (1,524 m)
Ceiling: Broken clouds 25,000 ft. (7,620 m)
Altimeter30.26 in.Hg (1025 mB)
Relative humidity46 %
Density altitude709 ft. (216 m)
Sea-level pressure102.5 kPa (1025 mB, 30.26 in.Hg)
Remarks Automated weather observing station with precipitation discriminator
Flight conditions Visual Meteorological Conditions
Raw dataKJFK 211851Z 36009KT 10SM FEW050 BKN250 23/11 A3026 RMK AO2 SLP246 T02280106
An error has occurred. This application may no longer respond until reloaded. Reload 🗙